GMME/RBA METAR and TAF weather

Enter ICAO airport designator
Station Type Date Time Source
GMME METAR 2022/05/26 05:30 UTC NOAA

GMME 260530Z 00000KT 6000 FEW020 12/11 Q1014 NOSIG


Station Type Date Time Source
GMME Decoded METAR 2022/05/26 05:30 UTC NOAA

Rabat-Sale, Morocco (GMME) 34-03N 006-46W 75M
May 26, 2022 - 01:30 AM EDT / 2022.05.26 0530 UTC
Wind: Calm:0
Visibility: 3 mile(s):0
Sky conditions: mostly clear
Temperature: 53 F (12 C)
Dew Point: 51 F (11 C)
Relative Humidity: 93%
Pressure (altimeter): 29.94 in. Hg (1014 hPa)
ob: GMME 260530Z 00000KT 6000 FEW020 12/11 Q1014 NOSIG
cycle: 5

Station Type Date Time Source
GMME TAF 2022/05/26 06:18 UTC NOAA

TAF GMME 260500Z 2606/2712 00000KT 6000 FEW020
BECMG 2608/2612 33008KT SCT020
TEMPO 2622/2708 00000KT NSC

Example: see airport list